sensor_id;sensor_type;location;lat;lon;timestamp;pressure;altitude;pressure_sealevel;temperature;humidity
64292;BME280;50628;51.008;13.658;2023-07-16T00:03:11;99123.63;;;23.25;100.00
64292;BME280;50628;51.008;13.658;2023-07-16T00:08:14;99159.63;;;23.21;100.00
64292;BME280;50628;51.008;13.658;2023-07-16T00:13:17;99158.50;;;23.10;100.00
64292;BME280;50628;51.008;13.658;2023-07-16T00:18:19;99279.63;;;22.73;100.00
64292;BME280;50628;51.008;13.658;2023-07-16T00:23:21;99295.25;;;23.20;100.00
64292;BME280;50628;51.008;13.658;2023-07-16T00:28:24;99344.06;;;23.44;100.00
64292;BME280;50628;51.008;13.658;2023-07-16T00:33:26;99370.13;;;23.53;100.00
64292;BME280;50628;51.008;13.658;2023-07-16T00:38:28;99368.66;;;23.58;100.00
64292;BME280;50628;51.008;13.658;2023-07-16T00:43:31;99384.78;;;23.63;100.00
64292;BME280;50628;51.008;13.658;2023-07-16T00:53:35;99385.97;;;23.42;100.00
64292;BME280;50628;51.008;13.658;2023-07-16T00:58:38;99384.94;;;23.43;100.00
64292;BME280;50628;51.008;13.658;2023-07-16T01:03:40;99400.59;;;23.26;100.00
64292;BME280;50628;51.008;13.658;2023-07-16T01:08:46;99378.31;;;23.27;100.00
64292;BME280;50628;51.008;13.658;2023-07-16T01:13:50;99351.94;;;23.32;100.00
64292;BME280;50628;51.008;13.658;2023-07-16T01:18:53;99345.00;;;23.31;100.00
64292;BME280;50628;51.008;13.658;2023-07-16T01:24:14;99325.00;;;23.28;100.00
64292;BME280;50628;51.008;13.658;2023-07-16T01:29:31;99318.31;;;23.19;100.00
64292;BME280;50628;51.008;13.658;2023-07-16T01:34:34;99296.22;;;22.94;100.00
64292;BME280;50628;51.008;13.658;2023-07-16T01:39:38;99300.94;;;22.92;100.00
64292;BME280;50628;51.008;13.658;2023-07-16T01:44:41;99326.06;;;22.89;100.00
64292;BME280;50628;51.008;13.658;2023-07-16T01:49:43;99345.31;;;22.33;100.00
64292;BME280;50628;51.008;13.658;2023-07-16T01:54:45;99344.72;;;22.17;100.00
64292;BME280;50628;51.008;13.658;2023-07-16T01:59:49;99339.50;;;21.91;100.00
64292;BME280;50628;51.008;13.658;2023-07-16T02:04:51;99349.91;;;21.86;100.00
64292;BME280;50628;51.008;13.658;2023-07-16T02:09:53;99339.69;;;21.89;100.00
64292;BME280;50628;51.008;13.658;2023-07-16T02:14:56;99415.09;;;21.47;100.00
64292;BME280;50628;51.008;13.658;2023-07-16T02:19:58;99414.41;;;21.05;100.00
64292;BME280;50628;51.008;13.658;2023-07-16T02:25:00;99419.25;;;20.94;100.00
64292;BME280;50628;51.008;13.658;2023-07-16T02:30:05;99420.22;;;20.80;100.00
64292;BME280;50628;51.008;13.658;2023-07-16T02:35:07;99421.38;;;20.64;100.00
64292;BME280;50628;51.008;13.658;2023-07-16T02:40:09;99432.22;;;20.48;100.00
64292;BME280;50628;51.008;13.658;2023-07-16T02:45:13;99499.44;;;20.32;100.00
64292;BME280;50628;51.008;13.658;2023-07-16T02:50:14;99512.59;;;20.25;100.00
64292;BME280;50628;51.008;13.658;2023-07-16T02:55:17;99530.84;;;20.14;100.00
64292;BME280;50628;51.008;13.658;2023-07-16T03:00:20;99551.59;;;20.17;100.00
64292;BME280;50628;51.008;13.658;2023-07-16T03:05:22;99550.28;;;20.06;100.00
64292;BME280;50628;51.008;13.658;2023-07-16T03:10:24;99556.69;;;19.97;100.00
64292;BME280;50628;51.008;13.658;2023-07-16T03:15:28;99552.91;;;19.84;100.00
64292;BME280;50628;51.008;13.658;2023-07-16T03:20:30;99565.00;;;19.94;100.00
64292;BME280;50628;51.008;13.658;2023-07-16T03:25:32;99594.06;;;19.94;100.00
64292;BME280;50628;51.008;13.658;2023-07-16T03:30:36;99599.88;;;19.89;100.00
64292;BME280;50628;51.008;13.658;2023-07-16T03:35:38;99606.41;;;19.72;100.00
64292;BME280;50628;51.008;13.658;2023-07-16T03:40:42;99590.56;;;19.57;100.00
64292;BME280;50628;51.008;13.658;2023-07-16T03:45:46;99547.78;;;19.61;100.00
64292;BME280;50628;51.008;13.658;2023-07-16T03:50:48;99562.16;;;19.59;100.00
64292;BME280;50628;51.008;13.658;2023-07-16T03:55:49;99562.34;;;19.57;100.00
64292;BME280;50628;51.008;13.658;2023-07-16T04:00:53;99522.56;;;19.59;100.00
64292;BME280;50628;51.008;13.658;2023-07-16T04:06:01;99512.13;;;19.51;100.00
64292;BME280;50628;51.008;13.658;2023-07-16T04:11:04;99517.53;;;19.64;100.00
64292;BME280;50628;51.008;13.658;2023-07-16T04:16:07;99503.00;;;19.68;100.00
64292;BME280;50628;51.008;13.658;2023-07-16T04:21:09;99508.97;;;19.77;100.00
64292;BME280;50628;51.008;13.658;2023-07-16T04:26:11;99501.53;;;19.87;100.00
64292;BME280;50628;51.008;13.658;2023-07-16T04:31:14;99514.06;;;19.78;100.00
64292;BME280;50628;51.008;13.658;2023-07-16T04:36:16;99515.94;;;19.84;100.00
64292;BME280;50628;51.008;13.658;2023-07-16T04:41:18;99507.25;;;19.91;100.00
64292;BME280;50628;51.008;13.658;2023-07-16T04:46:21;99515.31;;;19.82;100.00
64292;BME280;50628;51.008;13.658;2023-07-16T04:51:23;99537.94;;;19.92;100.00
64292;BME280;50628;51.008;13.658;2023-07-16T04:56:25;99529.22;;;19.91;100.00
64292;BME280;50628;51.008;13.658;2023-07-16T05:01:28;99516.75;;;19.85;100.00
64292;BME280;50628;51.008;13.658;2023-07-16T05:06:30;99484.34;;;19.98;100.00
64292;BME280;50628;51.008;13.658;2023-07-16T05:11:32;99441.59;;;20.16;100.00
64292;BME280;50628;51.008;13.658;2023-07-16T05:16:35;99437.84;;;20.31;100.00
64292;BME280;50628;51.008;13.658;2023-07-16T05:21:37;99438.81;;;20.24;100.00
64292;BME280;50628;51.008;13.658;2023-07-16T05:26:39;99473.19;;;20.30;100.00
64292;BME280;50628;51.008;13.658;2023-07-16T05:31:43;99496.47;;;20.42;100.00
64292;BME280;50628;51.008;13.658;2023-07-16T05:36:46;99501.06;;;20.55;100.00
64292;BME280;50628;51.008;13.658;2023-07-16T05:41:48;99494.47;;;20.50;100.00
64292;BME280;50628;51.008;13.658;2023-07-16T05:46:52;99510.25;;;20.65;100.00
64292;BME280;50628;51.008;13.658;2023-07-16T05:51:53;99526.34;;;20.64;100.00
64292;BME280;50628;51.008;13.658;2023-07-16T05:56:56;99532.13;;;20.81;100.00
64292;BME280;50628;51.008;13.658;2023-07-16T06:01:59;99547.38;;;21.20;100.00
64292;BME280;50628;51.008;13.658;2023-07-16T06:07:02;99586.72;;;21.30;100.00
64292;BME280;50628;51.008;13.658;2023-07-16T06:12:04;99573.41;;;21.58;100.00
64292;BME280;50628;51.008;13.658;2023-07-16T06:17:08;99571.00;;;21.70;100.00
64292;BME280;50628;51.008;13.658;2023-07-16T06:22:10;99584.84;;;21.72;100.00
64292;BME280;50628;51.008;13.658;2023-07-16T06:27:12;99578.53;;;21.73;100.00
64292;BME280;50628;51.008;13.658;2023-07-16T06:32:15;99582.00;;;21.87;100.00
64292;BME280;50628;51.008;13.658;2023-07-16T06:37:17;99594.06;;;21.96;100.00
64292;BME280;50628;51.008;13.658;2023-07-16T06:42:18;99579.25;;;22.28;100.00
64292;BME280;50628;51.008;13.658;2023-07-16T06:47:24;99575.38;;;22.24;100.00
64292;BME280;50628;51.008;13.658;2023-07-16T06:52:26;99575.97;;;22.26;100.00
64292;BME280;50628;51.008;13.658;2023-07-16T06:57:31;99570.25;;;22.42;100.00
64292;BME280;50628;51.008;13.658;2023-07-16T07:02:34;99567.59;;;22.76;100.00
64292;BME280;50628;51.008;13.658;2023-07-16T07:07:36;99572.47;;;22.99;100.00
64292;BME280;50628;51.008;13.658;2023-07-16T07:12:38;99569.00;;;22.78;100.00
64292;BME280;50628;51.008;13.658;2023-07-16T07:17:42;99578.69;;;23.24;100.00
64292;BME280;50628;51.008;13.658;2023-07-16T07:22:46;99580.31;;;23.25;100.00
64292;BME280;50628;51.008;13.658;2023-07-16T07:27:48;99576.41;;;23.28;100.00
64292;BME280;50628;51.008;13.658;2023-07-16T07:32:51;99585.28;;;23.53;100.00
64292;BME280;50628;51.008;13.658;2023-07-16T07:37:53;99593.69;;;23.95;100.00
64292;BME280;50628;51.008;13.658;2023-07-16T07:42:55;99599.47;;;23.86;100.00
64292;BME280;50628;51.008;13.658;2023-07-16T07:47:58;99604.03;;;23.72;100.00
64292;BME280;50628;51.008;13.658;2023-07-16T07:53:00;99613.88;;;23.58;100.00
64292;BME280;50628;51.008;13.658;2023-07-16T07:58:02;99615.53;;;23.59;100.00
64292;BME280;50628;51.008;13.658;2023-07-16T08:03:05;99604.47;;;23.69;100.00
64292;BME280;50628;51.008;13.658;2023-07-16T08:08:07;99602.38;;;23.71;100.00
64292;BME280;50628;51.008;13.658;2023-07-16T08:13:09;99593.19;;;23.73;100.00
64292;BME280;50628;51.008;13.658;2023-07-16T08:18:12;99589.31;;;23.69;100.00
64292;BME280;50628;51.008;13.658;2023-07-16T08:23:14;99593.59;;;23.70;100.00
64292;BME280;50628;51.008;13.658;2023-07-16T08:28:17;99613.88;;;23.58;100.00
64292;BME280;50628;51.008;13.658;2023-07-16T08:33:20;99617.94;;;23.67;96.31
64292;BME280;50628;51.008;13.658;2023-07-16T08:38:22;99618.41;;;23.96;98.46
64292;BME280;50628;51.008;13.658;2023-07-16T08:43:24;99607.88;;;24.14;99.00
64292;BME280;50628;51.008;13.658;2023-07-16T08:48:28;99620.34;;;24.14;91.93
64292;BME280;50628;51.008;13.658;2023-07-16T08:53:30;99632.66;;;24.08;90.56
64292;BME280;50628;51.008;13.658;2023-07-16T08:58:32;99626.53;;;24.08;93.05
64292;BME280;50628;51.008;13.658;2023-07-16T09:03:35;99627.47;;;24.20;93.84
64292;BME280;50628;51.008;13.658;2023-07-16T09:08:37;99642.56;;;23.94;91.06
64292;BME280;50628;51.008;13.658;2023-07-16T09:13:44;99646.25;;;24.25;90.94
64292;BME280;50628;51.008;13.658;2023-07-16T09:18:47;99656.16;;;24.43;91.63
64292;BME280;50628;51.008;13.658;2023-07-16T09:23:49;99643.41;;;24.52;90.04
64292;BME280;50628;51.008;13.658;2023-07-16T09:28:51;99655.50;;;24.16;86.74
64292;BME280;50628;51.008;13.658;2023-07-16T09:33:57;99667.28;;;24.65;86.71
64292;BME280;50628;51.008;13.658;2023-07-16T09:38:59;99654.31;;;24.94;79.90
64292;BME280;50628;51.008;13.658;2023-07-16T09:44:01;99649.78;;;24.94;76.29
64292;BME280;50628;51.008;13.658;2023-07-16T09:49:05;99642.66;;;24.95;72.91
64292;BME280;50628;51.008;13.658;2023-07-16T09:54:07;99660.25;;;24.71;71.77
64292;BME280;50628;51.008;13.658;2023-07-16T09:59:13;99657.59;;;24.46;70.95
64292;BME280;50628;51.008;13.658;2023-07-16T10:04:18;99668.00;;;24.97;73.37
64292;BME280;50628;51.008;13.658;2023-07-16T10:09:36;99657.66;;;25.08;73.52
64292;BME280;50628;51.008;13.658;2023-07-16T10:14:40;99661.34;;;25.07;70.89
64292;BME280;50628;51.008;13.658;2023-07-16T10:19:55;99672.22;;;25.30;70.39
64292;BME280;50628;51.008;13.658;2023-07-16T10:24:58;99667.75;;;25.42;70.45
64292;BME280;50628;51.008;13.658;2023-07-16T10:30:00;99670.28;;;25.56;65.66
64292;BME280;50628;51.008;13.658;2023-07-16T10:35:06;99684.63;;;25.73;64.88
64292;BME280;50628;51.008;13.658;2023-07-16T10:40:10;99683.09;;;25.65;64.12
64292;BME280;50628;51.008;13.658;2023-07-16T10:45:12;99691.53;;;25.25;64.34
64292;BME280;50628;51.008;13.658;2023-07-16T10:50:16;99679.25;;;25.43;65.93
64292;BME280;50628;51.008;13.658;2023-07-16T10:55:18;99675.44;;;25.87;64.46
64292;BME280;50628;51.008;13.658;2023-07-16T11:00:21;99669.53;;;25.48;65.50
64292;BME280;50628;51.008;13.658;2023-07-16T11:05:25;99672.22;;;25.48;66.51
64292;BME280;50628;51.008;13.658;2023-07-16T11:10:28;99668.06;;;25.83;66.29
64292;BME280;50628;51.008;13.658;2023-07-16T11:15:31;99680.31;;;25.72;65.81
64292;BME280;50628;51.008;13.658;2023-07-16T11:20:35;99681.56;;;26.06;66.03
64292;BME280;50628;51.008;13.658;2023-07-16T11:25:36;99679.69;;;26.07;65.65
64292;BME280;50628;51.008;13.658;2023-07-16T11:30:38;99672.69;;;25.94;65.02
64292;BME280;50628;51.008;13.658;2023-07-16T11:35:42;99670.69;;;27.09;64.31
64292;BME280;50628;51.008;13.658;2023-07-16T11:40:43;99672.31;;;26.98;61.73
64292;BME280;50628;51.008;13.658;2023-07-16T11:45:47;99676.16;;;26.90;61.22
64292;BME280;50628;51.008;13.658;2023-07-16T11:50:51;99658.34;;;26.49;62.06
64292;BME280;50628;51.008;13.658;2023-07-16T11:55:53;99649.97;;;26.45;62.00
64292;BME280;50628;51.008;13.658;2023-07-16T12:00:55;99637.44;;;27.16;61.22
64292;BME280;50628;51.008;13.658;2023-07-16T12:05:59;99639.03;;;27.93;58.45
64292;BME280;50628;51.008;13.658;2023-07-16T12:11:01;99624.25;;;28.53;58.06
64292;BME280;50628;51.008;13.658;2023-07-16T12:16:04;99638.50;;;28.25;58.45
64292;BME280;50628;51.008;13.658;2023-07-16T12:21:07;99625.50;;;28.17;57.19
64292;BME280;50628;51.008;13.658;2023-07-16T12:26:09;99629.75;;;27.84;58.35
64292;BME280;50628;51.008;13.658;2023-07-16T12:31:11;99631.03;;;29.61;55.31
64292;BME280;50628;51.008;13.658;2023-07-16T12:36:15;99629.34;;;30.04;51.63
64292;BME280;50628;51.008;13.658;2023-07-16T12:41:17;99618.84;;;30.67;52.58
64292;BME280;50628;51.008;13.658;2023-07-16T12:46:19;99617.78;;;30.30;52.32
64292;BME280;50628;51.008;13.658;2023-07-16T12:51:22;99624.09;;;28.99;55.21
64292;BME280;50628;51.008;13.658;2023-07-16T12:56:24;99622.97;;;30.10;52.92
64292;BME280;50628;51.008;13.658;2023-07-16T13:01:25;99630.31;;;29.92;52.49
64292;BME280;50628;51.008;13.658;2023-07-16T13:06:29;99624.53;;;29.79;52.49
64292;BME280;50628;51.008;13.658;2023-07-16T13:11:31;99619.88;;;30.60;51.03
64292;BME280;50628;51.008;13.658;2023-07-16T13:16:32;99611.50;;;29.87;52.31
64292;BME280;50628;51.008;13.658;2023-07-16T13:21:36;99609.06;;;30.88;50.40
64292;BME280;50628;51.008;13.658;2023-07-16T13:26:38;99605.88;;;31.64;49.09
64292;BME280;50628;51.008;13.658;2023-07-16T13:31:40;99611.03;;;31.02;49.46
64292;BME280;50628;51.008;13.658;2023-07-16T13:36:43;99613.41;;;30.94;49.07
64292;BME280;50628;51.008;13.658;2023-07-16T13:41:45;99604.09;;;29.72;51.02
64292;BME280;50628;51.008;13.658;2023-07-16T13:46:47;99614.59;;;30.76;50.20
64292;BME280;50628;51.008;13.658;2023-07-16T13:51:50;99624.53;;;31.18;47.14
64292;BME280;50628;51.008;13.658;2023-07-16T13:56:52;99609.00;;;30.77;47.33
64292;BME280;50628;51.008;13.658;2023-07-16T14:01:59;99609.84;;;30.13;48.53
64292;BME280;50628;51.008;13.658;2023-07-16T14:07:03;99613.16;;;30.58;47.68
64292;BME280;50628;51.008;13.658;2023-07-16T14:12:05;99612.25;;;31.42;45.92
64292;BME280;50628;51.008;13.658;2023-07-16T14:17:07;99607.09;;;31.25;45.17
64292;BME280;50628;51.008;13.658;2023-07-16T14:22:11;99613.72;;;31.86;43.72
64292;BME280;50628;51.008;13.658;2023-07-16T14:27:13;99615.63;;;32.72;42.35
64292;BME280;50628;51.008;13.658;2023-07-16T14:32:15;99627.75;;;32.44;41.15
64292;BME280;50628;51.008;13.658;2023-07-16T14:37:18;99610.81;;;32.49;40.05
64292;BME280;50628;51.008;13.658;2023-07-16T14:42:20;99616.44;;;32.63;39.66
64292;BME280;50628;51.008;13.658;2023-07-16T14:47:22;99609.66;;;32.81;39.14
64292;BME280;50628;51.008;13.658;2023-07-16T14:52:25;99603.44;;;31.62;40.30
64292;BME280;50628;51.008;13.658;2023-07-16T14:57:27;99599.75;;;32.09;39.49
64292;BME280;50628;51.008;13.658;2023-07-16T15:02:29;99596.81;;;32.21;39.81
64292;BME280;50628;51.008;13.658;2023-07-16T15:07:34;99589.78;;;32.46;39.29
64292;BME280;50628;51.008;13.658;2023-07-16T15:12:36;99594.00;;;32.88;39.12
64292;BME280;50628;51.008;13.658;2023-07-16T15:17:38;99592.59;;;31.37;41.12
64292;BME280;50628;51.008;13.658;2023-07-16T15:22:41;99596.22;;;32.70;38.47
64292;BME280;50628;51.008;13.658;2023-07-16T15:27:43;99598.38;;;32.48;38.48
64292;BME280;50628;51.008;13.658;2023-07-16T15:32:44;99580.84;;;33.41;37.35
64292;BME280;50628;51.008;13.658;2023-07-16T15:37:48;99593.97;;;32.93;37.69
64292;BME280;50628;51.008;13.658;2023-07-16T15:42:49;99587.59;;;32.43;38.53
64292;BME280;50628;51.008;13.658;2023-07-16T15:47:53;99588.16;;;32.45;38.21
64292;BME280;50628;51.008;13.658;2023-07-16T15:52:58;99593.28;;;32.00;38.35
64292;BME280;50628;51.008;13.658;2023-07-16T15:58:01;99596.28;;;32.09;38.96
64292;BME280;50628;51.008;13.658;2023-07-16T16:03:03;99592.47;;;32.30;38.59
64292;BME280;50628;51.008;13.658;2023-07-16T16:08:14;99573.38;;;32.22;38.94
64292;BME280;50628;51.008;13.658;2023-07-16T16:13:17;99584.97;;;31.97;39.41
64292;BME280;50628;51.008;13.658;2023-07-16T16:18:19;99587.91;;;31.07;39.62
64292;BME280;50628;51.008;13.658;2023-07-16T16:23:22;99590.81;;;30.47;41.14
64292;BME280;50628;51.008;13.658;2023-07-16T16:28:24;99583.81;;;29.82;42.53
64292;BME280;50628;51.008;13.658;2023-07-16T16:33:26;99582.22;;;29.59;43.96
64292;BME280;50628;51.008;13.658;2023-07-16T16:38:29;99592.75;;;29.43;43.76
64292;BME280;50628;51.008;13.658;2023-07-16T16:43:31;99591.03;;;29.32;44.00
64292;BME280;50628;51.008;13.658;2023-07-16T16:48:33;99602.97;;;29.02;44.57
64292;BME280;50628;51.008;13.658;2023-07-16T16:53:38;99602.59;;;28.94;44.60
64292;BME280;50628;51.008;13.658;2023-07-16T16:58:41;99601.50;;;28.73;44.95
64292;BME280;50628;51.008;13.658;2023-07-16T17:03:43;99618.25;;;28.63;45.45
64292;BME280;50628;51.008;13.658;2023-07-16T17:08:46;99612.78;;;28.24;46.10
64292;BME280;50628;51.008;13.658;2023-07-16T17:13:48;99622.25;;;28.15;46.09
64292;BME280;50628;51.008;13.658;2023-07-16T17:18:49;99626.09;;;28.19;46.34
64292;BME280;50628;51.008;13.658;2023-07-16T17:23:53;99623.06;;;27.98;46.66
64292;BME280;50628;51.008;13.658;2023-07-16T17:28:54;99627.16;;;27.89;46.83
64292;BME280;50628;51.008;13.658;2023-07-16T17:33:56;99623.16;;;27.75;46.96
64292;BME280;50628;51.008;13.658;2023-07-16T17:38:59;99622.38;;;27.62;47.59
64292;BME280;50628;51.008;13.658;2023-07-16T17:44:02;99636.97;;;27.43;48.15
64292;BME280;50628;51.008;13.658;2023-07-16T17:49:04;99630.72;;;27.14;47.95
64292;BME280;50628;51.008;13.658;2023-07-16T17:54:10;99635.50;;;27.24;47.93
64292;BME280;50628;51.008;13.658;2023-07-16T17:59:16;99637.94;;;27.25;48.10
64292;BME280;50628;51.008;13.658;2023-07-16T18:04:19;99641.03;;;27.46;47.72
64292;BME280;50628;51.008;13.658;2023-07-16T18:09:24;99642.00;;;27.28;48.19
64292;BME280;50628;51.008;13.658;2023-07-16T18:14:26;99657.22;;;27.15;48.65
64292;BME280;50628;51.008;13.658;2023-07-16T18:19:29;99651.75;;;26.98;49.12
64292;BME280;50628;51.008;13.658;2023-07-16T18:24:35;99647.94;;;26.83;49.66
64292;BME280;50628;51.008;13.658;2023-07-16T18:29:37;99653.84;;;26.73;50.04
64292;BME280;50628;51.008;13.658;2023-07-16T18:34:40;99662.31;;;26.58;50.04
64292;BME280;50628;51.008;13.658;2023-07-16T18:39:45;99666.84;;;26.81;50.22
64292;BME280;50628;51.008;13.658;2023-07-16T18:44:47;99659.78;;;26.63;49.69
64292;BME280;50628;51.008;13.658;2023-07-16T18:50:00;99676.56;;;26.52;49.47
64292;BME280;50628;51.008;13.658;2023-07-16T18:55:12;99680.34;;;26.32;50.21
64292;BME280;50628;51.008;13.658;2023-07-16T19:00:15;99683.69;;;26.16;49.96
64292;BME280;50628;51.008;13.658;2023-07-16T19:05:18;99684.34;;;26.11;50.94
64292;BME280;50628;51.008;13.658;2023-07-16T19:10:25;99688.97;;;26.04;51.08
64292;BME280;50628;51.008;13.658;2023-07-16T19:15:36;99686.19;;;25.81;50.58
64292;BME280;50628;51.008;13.658;2023-07-16T19:20:38;99695.75;;;25.52;52.15
64292;BME280;50628;51.008;13.658;2023-07-16T19:25:42;99691.47;;;25.51;54.57
64292;BME280;50628;51.008;13.658;2023-07-16T19:30:45;99703.34;;;25.04;59.43
64292;BME280;50628;51.008;13.658;2023-07-16T19:35:47;99699.97;;;24.72;61.59
64292;BME280;50628;51.008;13.658;2023-07-16T19:40:51;99712.13;;;24.61;61.24
64292;BME280;50628;51.008;13.658;2023-07-16T19:45:59;99725.50;;;24.55;62.38
64292;BME280;50628;51.008;13.658;2023-07-16T19:51:04;99717.72;;;24.15;64.77
64292;BME280;50628;51.008;13.658;2023-07-16T19:56:09;99717.53;;;24.10;67.56
64292;BME280;50628;51.008;13.658;2023-07-16T20:01:12;99716.22;;;23.87;70.22
64292;BME280;50628;51.008;13.658;2023-07-16T20:06:19;99729.78;;;23.59;72.71
64292;BME280;50628;51.008;13.658;2023-07-16T20:11:26;99740.03;;;23.36;76.79
64292;BME280;50628;51.008;13.658;2023-07-16T20:16:31;99732.28;;;23.34;77.51
64292;BME280;50628;51.008;13.658;2023-07-16T20:21:35;99737.00;;;23.19;78.69
64292;BME280;50628;51.008;13.658;2023-07-16T20:26:39;99748.41;;;22.93;80.12
64292;BME280;50628;51.008;13.658;2023-07-16T20:31:44;99749.03;;;22.68;82.52
64292;BME280;50628;51.008;13.658;2023-07-16T20:36:48;99752.03;;;22.45;84.67
64292;BME280;50628;51.008;13.658;2023-07-16T20:41:57;99762.41;;;22.40;86.30
64292;BME280;50628;51.008;13.658;2023-07-16T20:46:59;99762.09;;;22.15;88.98
64292;BME280;50628;51.008;13.658;2023-07-16T20:52:01;99750.47;;;22.09;91.90
64292;BME280;50628;51.008;13.658;2023-07-16T20:57:06;99744.56;;;22.14;92.52
64292;BME280;50628;51.008;13.658;2023-07-16T21:02:08;99747.94;;;21.88;93.70
64292;BME280;50628;51.008;13.658;2023-07-16T21:07:10;99749.16;;;21.85;96.95
64292;BME280;50628;51.008;13.658;2023-07-16T21:12:13;99738.88;;;21.69;99.12
64292;BME280;50628;51.008;13.658;2023-07-16T21:17:15;99738.19;;;21.53;100.00
64292;BME280;50628;51.008;13.658;2023-07-16T21:22:16;99742.63;;;21.46;100.00
64292;BME280;50628;51.008;13.658;2023-07-16T21:27:23;99751.03;;;21.28;100.00
64292;BME280;50628;51.008;13.658;2023-07-16T21:32:26;99756.72;;;21.25;100.00
64292;BME280;50628;51.008;13.658;2023-07-16T21:37:28;99741.56;;;21.12;100.00
64292;BME280;50628;51.008;13.658;2023-07-16T21:42:31;99750.84;;;21.02;100.00
64292;BME280;50628;51.008;13.658;2023-07-16T21:47:33;99759.03;;;21.07;100.00
64292;BME280;50628;51.008;13.658;2023-07-16T21:52:35;99771.38;;;20.78;100.00
64292;BME280;50628;51.008;13.658;2023-07-16T21:57:38;99777.81;;;20.69;100.00
64292;BME280;50628;51.008;13.658;2023-07-16T22:02:40;99783.28;;;20.67;100.00
64292;BME280;50628;51.008;13.658;2023-07-16T22:07:42;99781.22;;;20.48;100.00
64292;BME280;50628;51.008;13.658;2023-07-16T22:12:46;99788.31;;;20.62;100.00
64292;BME280;50628;51.008;13.658;2023-07-16T22:17:48;99791.59;;;20.49;100.00
64292;BME280;50628;51.008;13.658;2023-07-16T22:22:49;99810.56;;;20.53;100.00
64292;BME280;50628;51.008;13.658;2023-07-16T22:27:53;99817.78;;;20.59;100.00
64292;BME280;50628;51.008;13.658;2023-07-16T22:32:55;99822.59;;;20.41;100.00
64292;BME280;50628;51.008;13.658;2023-07-16T22:37:57;99813.69;;;20.42;100.00
64292;BME280;50628;51.008;13.658;2023-07-16T22:43:01;99827.38;;;20.30;100.00
64292;BME280;50628;51.008;13.658;2023-07-16T22:48:03;99831.19;;;20.43;100.00
64292;BME280;50628;51.008;13.658;2023-07-16T22:53:05;99826.03;;;20.20;100.00
64292;BME280;50628;51.008;13.658;2023-07-16T22:58:08;99836.41;;;19.77;100.00
64292;BME280;50628;51.008;13.658;2023-07-16T23:03:10;99837.44;;;19.53;100.00
64292;BME280;50628;51.008;13.658;2023-07-16T23:08:13;99829.97;;;19.94;100.00
64292;BME280;50628;51.008;13.658;2023-07-16T23:13:17;99827.69;;;19.76;100.00
64292;BME280;50628;51.008;13.658;2023-07-16T23:18:18;99838.00;;;19.63;100.00
64292;BME280;50628;51.008;13.658;2023-07-16T23:23:20;99839.00;;;19.62;100.00
64292;BME280;50628;51.008;13.658;2023-07-16T23:28:24;99835.88;;;19.43;100.00
64292;BME280;50628;51.008;13.658;2023-07-16T23:33:26;99834.25;;;19.57;100.00
64292;BME280;50628;51.008;13.658;2023-07-16T23:38:28;99834.31;;;19.34;100.00
64292;BME280;50628;51.008;13.658;2023-07-16T23:43:31;99836.13;;;19.72;100.00
64292;BME280;50628;51.008;13.658;2023-07-16T23:48:33;99828.28;;;19.63;100.00
64292;BME280;50628;51.008;13.658;2023-07-16T23:53:35;99825.00;;;19.61;100.00
64292;BME280;50628;51.008;13.658;2023-07-16T23:58:38;99821.25;;;19.56;100.00
